Time;durP1;ratioP1;P1;durP2;ratioP2;P2;SDS_P1;SDS_P2;PMS_P1;PMS_P2;Temp;Humidity;BMP_temperature;BMP_pressure;BME280_temperature;BME280_humidity;BME280_pressure;Samples;Min_cycle;Max_cycle;Signal;HPM_P1;HPM_P2
2022/04/04 00:00:25;;;;;;;2.53;1.40;;;;;;;;;;1990207;28;20174;-75
2022/04/04 00:01:24;;;;;;;2.60;1.40;;;;;;;;;;1990171;28;20472;-74
2022/04/04 00:02:23;;;;;;;3.25;1.50;;;;;;;;;;1989532;28;20414;-75
2022/04/04 00:03:22;;;;;;;2.23;1.30;;;;;;;;;;1989787;28;20174;-76
2022/04/04 00:04:21;;;;;;;2.80;1.30;;;;;;;;;;1989915;28;20793;-74
2022/04/04 00:05:21;;;;;;;2.07;1.30;;;;;;;;;;1990149;28;20464;-75
2022/04/04 00:06:20;;;;;;;1.75;1.40;;;;;;;;;;1990046;28;20759;-74
2022/04/04 00:07:19;;;;;;;2.75;1.15;;;;;;;;;;1990181;28;20183;-76
2022/04/04 00:08:18;;;;;;;2.73;1.57;;;;;;;;;;1990170;28;20539;-76
2022/04/04 00:09:17;;;;;;;2.30;1.67;;;;;;;;;;1989809;28;20410;-76
2022/04/04 00:10:16;;;;;;;3.67;1.67;;;;;;;;;;1989409;28;20429;-75
2022/04/04 00:11:15;;;;;;;3.50;1.70;;;;;;;;;;1989441;28;20485;-75
2022/04/04 00:12:14;;;;;;;1.60;1.37;;;;;;;;;;1990033;28;20875;-75
2022/04/04 00:13:13;;;;;;;2.08;1.42;;;;;;;;;;1989985;28;20421;-74
2022/04/04 00:14:12;;;;;;;1.93;1.70;;;;;;;;;;1989999;28;20180;-75
2022/04/04 00:15:11;;;;;;;4.82;1.70;;;;;;;;;;1989978;28;20453;-75
2022/04/04 00:16:10;;;;;;;2.40;1.70;;;;;;;;;;1989768;28;20178;-75
2022/04/04 00:17:09;;;;;;;2.80;1.50;;;;;;;;;;1989728;28;20488;-74
2022/04/04 00:18:10;;;;;;;2.10;1.52;;;;;;;;;;1989942;28;20448;-75
2022/04/04 00:19:09;;;;;;;5.93;2.03;;;;;;;;;;1989941;28;20508;-74
2022/04/04 00:20:09;;;;;;;3.00;1.30;;;;;;;;;;1990171;28;20178;-75
2022/04/04 00:21:09;;;;;;;3.33;2.25;;;;;;;;;;1990009;28;20786;-76
2022/04/04 00:22:08;;;;;;;2.80;1.38;;;;;;;;;;1989961;28;20716;-75
2022/04/04 00:23:12;;;;;;;2.20;1.30;;;;;;;;;;1989873;28;20174;-75
2022/04/04 00:24:11;;;;;;;2.50;1.40;;;;;;;;;;1989943;28;20144;-76
2022/04/04 00:25:10;;;;;;;2.97;1.50;;;;;;;;;;1989820;28;20179;-75
2022/04/04 00:26:09;;;;;;;2.88;1.60;;;;;;;;;;1989795;28;20409;-75
2022/04/04 00:27:08;;;;;;;2.23;1.67;;;;;;;;;;1989687;28;20179;-75
2022/04/04 00:28:07;;;;;;;2.90;1.50;;;;;;;;;;1989791;28;20440;-76
2022/04/04 00:29:06;;;;;;;2.45;1.20;;;;;;;;;;1989789;28;20501;-76
2022/04/04 00:30:05;;;;;;;1.10;1.00;;;;;;;;;;1989677;28;20175;-75
2022/04/04 00:31:04;;;;;;;2.63;1.77;;;;;;;;;;1989999;28;20961;-75
2022/04/04 00:32:03;;;;;;;2.60;1.20;;;;;;;;;;1989799;28;20281;-75
2022/04/04 00:33:03;;;;;;;5.13;1.70;;;;;;;;;;1989846;28;20414;-76
2022/04/04 00:34:02;;;;;;;1.85;1.60;;;;;;;;;;1989750;28;20178;-76
2022/04/04 00:35:01;;;;;;;3.38;1.40;;;;;;;;;;1989652;28;20213;-74
2022/04/04 00:36:00;;;;;;;2.30;1.77;;;;;;;;;;1989747;28;20175;-74
2022/04/04 00:36:59;;;;;;;1.60;1.50;;;;;;;;;;1989777;28;20418;-75
2022/04/04 00:37:58;;;;;;;1.73;1.27;;;;;;;;;;1989726;28;20748;-76
2022/04/04 00:38:57;;;;;;;2.08;1.23;;;;;;;;;;1989653;28;20418;-75
2022/04/04 00:39:56;;;;;;;1.70;1.30;;;;;;;;;;1989615;28;20181;-75
2022/04/04 00:40:55;;;;;;;1.40;1.10;;;;;;;;;;1989713;28;20402;-74
2022/04/04 00:41:54;;;;;;;2.53;1.85;;;;;;;;;;1989679;28;20644;-75
2022/04/04 00:42:53;;;;;;;1.80;1.30;;;;;;;;;;1989702;28;20256;-76
2022/04/04 00:43:53;;;;;;;1.90;1.30;;;;;;;;;;1989725;28;20414;-77
2022/04/04 00:44:52;;;;;;;1.40;1.30;;;;;;;;;;1989682;28;20244;-74
2022/04/04 00:45:51;;;;;;;3.10;1.57;;;;;;;;;;1989723;28;20170;-76
2022/04/04 00:46:50;;;;;;;1.60;1.25;;;;;;;;;;1989256;28;20465;-75
2022/04/04 00:47:49;;;;;;;1.58;1.08;;;;;;;;;;1989189;28;20186;-75
2022/04/04 00:48:48;;;;;;;1.87;1.10;;;;;;;;;;1989175;28;20174;-75
2022/04/04 00:49:48;;;;;;;1.85;1.30;;;;;;;;;;1989194;28;20417;-76
2022/04/04 00:50:47;;;;;;;2.05;1.25;;;;;;;;;;1989204;28;20183;-76
2022/04/04 00:51:46;;;;;;;3.17;1.80;;;;;;;;;;1989242;28;20679;-75
2022/04/04 00:52:45;;;;;;;1.83;1.33;;;;;;;;;;1989164;28;20898;-76
2022/04/04 00:53:44;;;;;;;2.70;1.50;;;;;;;;;;1989127;28;20486;-76
2022/04/04 00:54:43;;;;;;;2.35;1.50;;;;;;;;;;1989096;28;20748;-76
2022/04/04 00:55:43;;;;;;;3.27;1.97;;;;;;;;;;1989264;28;20261;-76
2022/04/04 00:56:42;;;;;;;2.65;1.23;;;;;;;;;;1989021;28;20505;-76
2022/04/04 00:57:41;;;;;;;2.55;1.42;;;;;;;;;;1989158;28;20174;-75
2022/04/04 00:58:40;;;;;;;1.52;1.15;;;;;;;;;;1989182;28;20175;-75
2022/04/04 00:59:40;;;;;;;2.58;1.50;;;;;;;;;;1989143;28;20198;-75
2022/04/04 01:00:39;;;;;;;3.42;1.38;;;;;;;;;;1989228;28;20627;-75
2022/04/04 01:01:38;;;;;;;3.07;1.50;;;;;;;;;;1989223;28;20174;-75
2022/04/04 01:02:37;;;;;;;2.92;1.30;;;;;;;;;;1989168;28;20410;-75
2022/04/04 01:03:36;;;;;;;3.13;1.40;;;;;;;;;;1988895;28;20257;-75
2022/04/04 01:04:35;;;;;;;2.30;1.70;;;;;;;;;;1989169;28;20178;-75
2022/04/04 01:05:34;;;;;;;2.30;1.60;;;;;;;;;;1989316;28;20766;-75
2022/04/04 01:06:33;;;;;;;1.30;1.20;;;;;;;;;;1989056;28;20874;-77
2022/04/04 01:07:32;;;;;;;4.90;1.80;;;;;;;;;;1989112;28;20475;-75
2022/04/04 01:08:31;;;;;;;2.60;1.50;;;;;;;;;;1989108;28;20414;-75
2022/04/04 01:09:31;;;;;;;2.67;1.40;;;;;;;;;;1989188;28;20186;-74
2022/04/04 01:10:30;;;;;;;1.58;1.38;;;;;;;;;;1989315;28;20178;-75
2022/04/04 01:11:29;;;;;;;3.23;1.57;;;;;;;;;;1988395;28;20536;-75
2022/04/04 01:12:28;;;;;;;2.23;1.43;;;;;;;;;;1988627;28;20473;-75
2022/04/04 01:13:27;;;;;;;3.77;1.80;;;;;;;;;;1989259;28;20506;-75
2022/04/04 01:14:26;;;;;;;2.53;1.23;;;;;;;;;;1989112;28;20504;-75
2022/04/04 01:15:30;;;;;;;5.47;2.10;;;;;;;;;;1988880;28;20511;-75
2022/04/04 01:16:29;;;;;;;1.70;1.08;;;;;;;;;;1989093;28;20453;-75
2022/04/04 01:17:28;;;;;;;8.30;1.27;;;;;;;;;;1989124;28;20170;-74
2022/04/04 01:18:29;;;;;;;2.67;1.75;;;;;;;;;;1989371;28;20414;-75
2022/04/04 01:19:28;;;;;;;2.85;1.35;;;;;;;;;;1989122;28;20174;-75
2022/04/04 01:20:27;;;;;;;2.00;1.10;;;;;;;;;;1989050;28;20182;-76
2022/04/04 01:21:26;;;;;;;2.77;1.40;;;;;;;;;;1989174;28;20422;-75
2022/04/04 01:22:25;;;;;;;1.73;1.48;;;;;;;;;;1989083;28;20913;-75
2022/04/04 01:23:25;;;;;;;1.65;1.38;;;;;;;;;;1989143;28;20193;-74
2022/04/04 01:24:24;;;;;;;4.03;1.60;;;;;;;;;;1989020;28;20182;-75
2022/04/04 01:25:24;;;;;;;1.80;1.38;;;;;;;;;;1989051;28;20309;-75
2022/04/04 01:26:23;;;;;;;2.17;1.52;;;;;;;;;;1989163;28;20189;-75
2022/04/04 01:27:22;;;;;;;2.22;1.40;;;;;;;;;;1988946;28;20174;-75
2022/04/04 01:28:21;;;;;;;1.97;1.40;;;;;;;;;;1989028;28;20174;-75
2022/04/04 01:29:21;;;;;;;2.23;1.00;;;;;;;;;;1989013;28;20449;-74
2022/04/04 01:30:20;;;;;;;2.47;1.52;;;;;;;;;;1989062;28;20436;-75
2022/04/04 01:31:19;;;;;;;2.92;1.60;;;;;;;;;;1989113;28;20186;-75
2022/04/04 01:32:18;;;;;;;2.30;1.50;;;;;;;;;;1988971;28;20650;-75
2022/04/04 01:33:17;;;;;;;3.73;1.63;;;;;;;;;;1988992;28;20402;-75
2022/04/04 01:34:18;;;;;;;1.58;1.20;;;;;;;;;;1988965;28;20461;-75
2022/04/04 01:35:18;;;;;;;2.08;1.38;;;;;;;;;;1989014;28;20569;-75
2022/04/04 01:36:17;;;;;;;2.35;1.45;;;;;;;;;;1989032;28;20245;-75
2022/04/04 01:37:16;;;;;;;2.23;1.57;;;;;;;;;;1988988;28;20178;-75
2022/04/04 01:38:15;;;;;;;1.83;1.20;;;;;;;;;;1988935;28;20413;-76
2022/04/04 01:39:14;;;;;;;1.50;1.30;;;;;;;;;;1988924;28;20410;-75
2022/04/04 01:40:13;;;;;;;1.83;1.50;;;;;;;;;;1988239;28;20426;-75
2022/04/04 01:41:12;;;;;;;3.80;1.40;;;;;;;;;;1988436;28;20775;-75
2022/04/04 01:42:11;;;;;;;2.50;1.43;;;;;;;;;;1987695;28;20198;-75
2022/04/04 01:43:10;;;;;;;2.97;1.13;;;;;;;;;;1988406;28;20770;-76
2022/04/04 01:44:09;;;;;;;1.30;1.20;;;;;;;;;;1989127;28;20409;-75
2022/04/04 01:45:09;;;;;;;1.58;1.45;;;;;;;;;;1988867;28;20182;-75
2022/04/04 01:47:29;;;;;;;1.87;1.23;;;;;;;;;;2021103;27;1206077;-75
2022/04/04 01:48:28;;;;;;;3.40;1.40;;;;;;;;;;2051634;28;20438;-76
2022/04/04 01:49:27;;;;;;;1.20;1.10;;;;;;;;;;2051799;27;20391;-76
2022/04/04 01:50:26;;;;;;;3.43;1.47;;;;;;;;;;2051895;28;20169;-75
2022/04/04 01:51:26;;;;;;;2.20;1.43;;;;;;;;;;2051764;28;20391;-76
2022/04/04 01:52:25;;;;;;;2.95;1.50;;;;;;;;;;2051758;28;20437;-76
2022/04/04 01:53:29;;;;;;;2.15;1.30;;;;;;;;;;2051751;28;20157;-75
2022/04/04 01:54:28;;;;;;;1.90;1.67;;;;;;;;;;2051823;27;20157;-75
2022/04/04 01:55:27;;;;;;;1.87;1.10;;;;;;;;;;2051792;28;20181;-76
2022/04/04 01:56:27;;;;;;;5.77;1.77;;;;;;;;;;2049180;28;20399;-75
2022/04/04 01:57:26;;;;;;;4.82;2.13;;;;;;;;;;2043567;28;20521;-76
2022/04/04 01:58:25;;;;;;;1.67;1.20;;;;;;;;;;2042851;28;20682;-76
2022/04/04 01:59:24;;;;;;;2.80;1.25;;;;;;;;;;2043130;28;20398;-75
2022/04/04 02:00:23;;;;;;;1.60;1.10;;;;;;;;;;2043538;28;20646;-75
2022/04/04 02:01:23;;;;;;;1.38;1.25;;;;;;;;;;2043497;28;20197;-76
2022/04/04 02:02:22;;;;;;;3.80;1.75;;;;;;;;;;2043381;28;20197;-76
2022/04/04 02:03:21;;;;;;;1.60;1.40;;;;;;;;;;2042727;28;20297;-75
2022/04/04 02:04:19;;;;;;;2.10;1.37;;;;;;;;;;2042855;28;20430;-75
2022/04/04 02:05:18;;;;;;;2.20;1.73;;;;;;;;;;2043403;28;20431;-75
2022/04/04 02:06:20;;;;;;;1.73;1.30;;;;;;;;;;2043311;28;20431;-75
2022/04/04 02:07:20;;;;;;;2.05;1.15;;;;;;;;;;2043329;28;20452;-76
2022/04/04 02:08:19;;;;;;;1.97;1.47;;;;;;;;;;2042774;28;20174;-75
2022/04/04 02:09:18;;;;;;;1.33;1.13;;;;;;;;;;2042887;28;20399;-76
2022/04/04 02:10:17;;;;;;;1.75;1.38;;;;;;;;;;2042473;28;20174;-76
2022/04/04 02:11:16;;;;;;;2.13;1.45;;;;;;;;;;2042886;28;20170;-76
2022/04/04 02:12:15;;;;;;;4.32;1.73;;;;;;;;;;2043236;28;20201;-75
2022/04/04 02:13:14;;;;;;;1.77;1.43;;;;;;;;;;2043400;28;20177;-75
2022/04/04 02:14:13;;;;;;;1.30;1.10;;;;;;;;;;2043455;28;20905;-76
2022/04/04 02:15:13;;;;;;;1.60;1.30;;;;;;;;;;2043408;28;20407;-76
2022/04/04 02:16:12;;;;;;;1.40;1.20;;;;;;;;;;2043244;28;20487;-76
2022/04/04 02:17:11;;;;;;;1.42;1.20;;;;;;;;;;2043367;28;20176;-75
2022/04/04 02:18:11;;;;;;;3.57;1.43;;;;;;;;;;2043339;28;20639;-75
2022/04/04 02:19:11;;;;;;;1.55;1.40;;;;;;;;;;2043228;28;20418;-75
2022/04/04 02:20:10;;;;;;;2.75;1.45;;;;;;;;;;2042737;28;20257;-75
2022/04/04 02:21:09;;;;;;;1.75;1.40;;;;;;;;;;2042773;28;20651;-75
2022/04/04 02:22:08;;;;;;;1.98;1.23;;;;;;;;;;2043269;28;20261;-75
2022/04/04 02:23:07;;;;;;;2.13;1.27;;;;;;;;;;2043409;28;20545;-75
2022/04/04 02:24:07;;;;;;;3.77;1.27;;;;;;;;;;2043397;28;20170;-75
2022/04/04 02:25:06;;;;;;;1.85;1.33;;;;;;;;;;2043464;28;20456;-74
2022/04/04 02:26:05;;;;;;;1.77;1.20;;;;;;;;;;2043251;28;20205;-75
2022/04/04 02:27:04;;;;;;;2.78;1.38;;;;;;;;;;2043081;28;20203;-76
2022/04/04 02:28:04;;;;;;;1.92;1.08;;;;;;;;;;2043279;28;20166;-75
2022/04/04 02:29:03;;;;;;;1.50;1.40;;;;;;;;;;2043099;28;20184;-75
2022/04/04 02:30:02;;;;;;;1.48;1.10;;;;;;;;;;2043223;28;20252;-75
2022/04/04 02:31:01;;;;;;;3.03;1.40;;;;;;;;;;2042648;28;20258;-75
2022/04/04 02:32:00;;;;;;;1.38;1.10;;;;;;;;;;2042701;28;20408;-75
2022/04/04 02:32:59;;;;;;;1.17;1.07;;;;;;;;;;2042600;28;20694;-75
2022/04/04 02:33:58;;;;;;;1.85;1.40;;;;;;;;;;2042702;28;20400;-75
2022/04/04 02:34:57;;;;;;;1.50;1.07;;;;;;;;;;2043297;28;20636;-75
2022/04/04 02:35:56;;;;;;;1.25;1.00;;;;;;;;;;2043360;28;20483;-74
2022/04/04 02:36:55;;;;;;;1.50;1.10;;;;;;;;;;2043154;28;20189;-77
2022/04/04 02:37:54;;;;;;;1.23;1.13;;;;;;;;;;2043178;28;20625;-75
2022/04/04 02:38:53;;;;;;;2.60;1.37;;;;;;;;;;2043174;28;20647;-75
2022/04/04 02:39:52;;;;;;;2.17;1.57;;;;;;;;;;2043192;28;20404;-75
2022/04/04 02:40:52;;;;;;;2.67;1.50;;;;;;;;;;2042999;28;20547;-74
2022/04/04 02:41:51;;;;;;;1.80;1.40;;;;;;;;;;2045342;28;20483;-75
2022/04/04 02:42:50;;;;;;;1.57;1.13;;;;;;;;;;2050846;28;20180;-76
2022/04/04 02:43:49;;;;;;;1.75;1.38;;;;;;;;;;2052321;28;20402;-75
2022/04/04 02:44:48;;;;;;;1.40;1.30;;;;;;;;;;2052163;28;20178;-76
2022/04/04 02:45:47;;;;;;;1.73;1.50;;;;;;;;;;2052109;28;20188;-75
2022/04/04 02:46:46;;;;;;;1.52;1.20;;;;;;;;;;2051162;28;20474;-77
2022/04/04 02:47:45;;;;;;;1.67;1.57;;;;;;;;;;2049359;28;20165;-75
2022/04/04 02:48:44;;;;;;;2.23;1.30;;;;;;;;;;2048212;28;20396;-77
2022/04/04 02:49:43;;;;;;;1.37;1.13;;;;;;;;;;2047109;28;20801;-75
2022/04/04 02:50:43;;;;;;;1.20;1.07;;;;;;;;;;2046207;28;20859;-75
2022/04/04 02:51:42;;;;;;;2.40;1.30;;;;;;;;;;2045079;28;20396;-75
2022/04/04 02:52:41;;;;;;;2.03;1.70;;;;;;;;;;2045300;28;20184;-75
2022/04/04 02:53:40;;;;;;;1.40;1.10;;;;;;;;;;2044411;28;20439;-75
2022/04/04 02:54:39;;;;;;;1.85;1.75;;;;;;;;;;2043353;28;20278;-75
2022/04/04 02:56:56;;;;;;;1.50;1.25;;;;;;;;;;2043171;28;20415;-75
2022/04/04 02:57:55;;;;;;;2.30;1.30;;;;;;;;;;2043314;28;20181;-75
2022/04/04 02:58:54;;;;;;;1.63;1.17;;;;;;;;;;2037596;28;20399;-75
2022/04/04 02:59:53;;;;;;;1.98;1.50;;;;;;;;;;2037742;28;20198;-75
2022/04/04 03:00:52;;;;;;;1.63;1.40;;;;;;;;;;2037844;28;20178;-75
2022/04/04 03:01:51;;;;;;;3.93;1.40;;;;;;;;;;2037683;28;20181;-76
2022/04/04 03:02:50;;;;;;;3.53;1.70;;;;;;;;;;2037737;28;20839;-76
2022/04/04 03:03:49;;;;;;;3.13;1.30;;;;;;;;;;2037477;28;20485;-75
2022/04/04 03:04:48;;;;;;;2.53;1.40;;;;;;;;;;2037613;28;20178;-75
2022/04/04 03:05:47;;;;;;;1.27;1.17;;;;;;;;;;2037641;28;20555;-75
2022/04/04 03:06:46;;;;;;;3.47;1.40;;;;;;;;;;2037319;28;20859;-76
2022/04/04 03:07:45;;;;;;;3.30;1.45;;;;;;;;;;2037570;28;20811;-75
2022/04/04 03:08:44;;;;;;;2.17;1.45;;;;;;;;;;2037567;28;20167;-75
2022/04/04 03:09:43;;;;;;;2.40;1.20;;;;;;;;;;2037543;28;20241;-75
2022/04/04 03:10:42;;;;;;;1.53;1.10;;;;;;;;;;2037483;28;20400;-76
2022/04/04 03:11:41;;;;;;;2.45;1.40;;;;;;;;;;2037609;28;20564;-76
2022/04/04 03:12:41;;;;;;;1.87;1.30;;;;;;;;;;2037425;28;20296;-75
2022/04/04 03:13:40;;;;;;;4.13;1.10;;;;;;;;;;2037626;28;20397;-75
2022/04/04 03:14:39;;;;;;;1.63;1.43;;;;;;;;;;2037502;28;20204;-75
2022/04/04 03:15:38;;;;;;;1.97;1.10;;;;;;;;;;2037434;28;20794;-76
2022/04/04 03:16:38;;;;;;;1.73;1.30;;;;;;;;;;2037238;28;20443;-76
2022/04/04 03:17:39;;;;;;;1.55;1.10;;;;;;;;;;2037415;28;20411;-75
2022/04/04 03:18:38;;;;;;;2.00;1.38;;;;;;;;;;2037557;28;20178;-76
2022/04/04 03:19:37;;;;;;;1.20;1.10;;;;;;;;;;2037585;28;20651;-76
2022/04/04 03:20:36;;;;;;;3.10;1.77;;;;;;;;;;2037580;28;20531;-75
2022/04/04 03:21:35;;;;;;;2.30;1.40;;;;;;;;;;2037389;28;20401;-76
2022/04/04 03:22:34;;;;;;;1.30;1.20;;;;;;;;;;2037408;28;20290;-76
2022/04/04 03:23:39;;;;;;;2.75;1.30;;;;;;;;;;2037769;28;20307;-76
2022/04/04 03:24:38;;;;;;;1.58;1.10;;;;;;;;;;2037561;28;20250;-75
2022/04/04 03:25:37;;;;;;;1.37;1.23;;;;;;;;;;2037452;28;20162;-76
2022/04/04 03:26:36;;;;;;;1.27;1.00;;;;;;;;;;2037270;28;20911;-75
2022/04/04 03:27:39;;;;;;;1.23;1.10;;;;;;;;;;2037353;28;20220;-75
2022/04/04 03:28:39;;;;;;;1.58;1.13;;;;;;;;;;2037293;28;20162;-75
2022/04/04 03:29:37;;;;;;;1.95;1.40;;;;;;;;;;2037405;28;20173;-75
2022/04/04 03:30:36;;;;;;;1.43;1.17;;;;;;;;;;2037367;28;20640;-76
2022/04/04 03:31:35;;;;;;;1.43;1.27;;;;;;;;;;2037311;28;20428;-75
2022/04/04 03:32:35;;;;;;;3.30;1.60;;;;;;;;;;2037334;28;20404;-75
2022/04/04 03:33:34;;;;;;;1.38;1.27;;;;;;;;;;2036996;28;20768;-76
2022/04/04 03:34:34;;;;;;;1.73;1.25;;;;;;;;;;2028548;28;20264;-76
2022/04/04 03:35:33;;;;;;;1.70;1.45;;;;;;;;;;2036728;28;20187;-76
2022/04/04 03:36:32;;;;;;;1.35;1.25;;;;;;;;;;2037328;28;20181;-76
2022/04/04 03:37:35;;;;;;;2.00;1.57;;;;;;;;;;2036771;28;20533;-76
2022/04/04 03:38:35;;;;;;;1.42;1.00;;;;;;;;;;2036688;28;20407;-75
2022/04/04 03:39:34;;;;;;;1.10;1.00;;;;;;;;;;2037286;28;20182;-76
2022/04/04 03:40:34;;;;;;;2.50;1.33;;;;;;;;;;2037263;28;20162;-75
2022/04/04 03:41:33;;;;;;;3.72;1.20;;;;;;;;;;2037254;28;20439;-75
2022/04/04 03:42:32;;;;;;;2.05;1.40;;;;;;;;;;2037404;28;20187;-75
2022/04/04 03:43:31;;;;;;;2.92;1.30;;;;;;;;;;2036504;28;20317;-76
2022/04/04 03:44:30;;;;;;;1.95;1.38;;;;;;;;;;2036685;28;20258;-76
2022/04/04 03:45:30;;;;;;;0.80;0.77;;;;;;;;;;2037216;28;20411;-76
2022/04/04 03:46:29;;;;;;;1.70;1.08;;;;;;;;;;2037147;28;20413;-75
2022/04/04 03:47:28;;;;;;;1.35;1.25;;;;;;;;;;2037052;28;20225;-75
2022/04/04 03:48:27;;;;;;;1.37;1.20;;;;;;;;;;2037236;28;20177;-75
2022/04/04 03:49:26;;;;;;;1.30;1.20;;;;;;;;;;2037201;28;20393;-76
2022/04/04 03:50:26;;;;;;;2.38;1.23;;;;;;;;;;2037260;28;20167;-75
2022/04/04 03:51:25;;;;;;;2.00;1.15;;;;;;;;;;2037288;28;20179;-75
2022/04/04 03:52:24;;;;;;;1.77;1.10;;;;;;;;;;2037219;28;20605;-74
2022/04/04 03:53:23;;;;;;;1.30;0.90;;;;;;;;;;2037186;28;20480;-75
2022/04/04 03:54:22;;;;;;;1.30;1.20;;;;;;;;;;2036484;28;20438;-75
2022/04/04 03:55:22;;;;;;;1.33;1.00;;;;;;;;;;2036558;28;20170;-75
2022/04/04 03:56:21;;;;;;;2.17;1.50;;;;;;;;;;2037031;28;20400;-75
2022/04/04 03:57:20;;;;;;;3.67;1.67;;;;;;;;;;2037117;28;20701;-75
2022/04/04 03:58:19;;;;;;;1.38;1.20;;;;;;;;;;2037100;28;20422;-76
2022/04/04 03:59:18;;;;;;;1.60;1.17;;;;;;;;;;2036997;28;20263;-75
2022/04/04 04:00:17;;;;;;;1.20;1.07;;;;;;;;;;2037126;28;20192;-75
2022/04/04 04:01:16;;;;;;;1.17;1.00;;;;;;;;;;2037063;28;20400;-75
2022/04/04 04:02:15;;;;;;;1.38;1.02;;;;;;;;;;2037089;28;20170;-75
2022/04/04 04:03:14;;;;;;;1.48;1.23;;;;;;;;;;2037041;28;20228;-75
2022/04/04 04:04:13;;;;;;;1.20;0.97;;;;;;;;;;2037113;28;20518;-75
2022/04/04 04:05:12;;;;;;;1.33;1.17;;;;;;;;;;2037142;28;20456;-74
2022/04/04 04:06:11;;;;;;;1.20;1.10;;;;;;;;;;2036349;28;20423;-75
2022/04/04 04:07:15;;;;;;;1.30;1.20;;;;;;;;;;2036470;28;20589;-76
2022/04/04 04:08:14;;;;;;;1.20;0.95;;;;;;;;;;2037050;28;20377;-76
2022/04/04 04:09:13;;;;;;;4.00;1.30;;;;;;;;;;2036962;28;20170;-75
2022/04/04 04:10:12;;;;;;;1.13;1.03;;;;;;;;;;2036387;28;20416;-75
2022/04/04 04:11:13;;;;;;;2.00;1.10;;;;;;;;;;2036563;28;20860;-76
2022/04/04 04:12:15;;;;;;;1.95;1.10;;;;;;;;;;2036294;28;20416;-76
2022/04/04 04:13:14;;;;;;;1.90;1.73;;;;;;;;;;2036642;28;20163;-76
2022/04/04 04:14:13;;;;;;;1.97;1.47;;;;;;;;;;2037046;28;20671;-76
2022/04/04 04:15:13;;;;;;;1.70;0.98;;;;;;;;;;2037089;28;20404;-76
2022/04/04 04:16:14;;;;;;;1.55;1.40;;;;;;;;;;2037004;28;20174;-75
2022/04/04 04:17:15;;;;;;;1.75;1.35;;;;;;;;;;2036976;28;20181;-75
2022/04/04 04:18:14;;;;;;;1.00;0.80;;;;;;;;;;2037007;28;20214;-75
2022/04/04 04:20:33;;;;;;;1.63;1.20;;;;;;;;;;2036883;28;20455;-75
2022/04/04 04:21:35;;;;;;;2.55;1.20;;;;;;;;;;2036326;28;20166;-75
2022/04/04 04:22:34;;;;;;;4.22;1.52;;;;;;;;;;2036241;28;20171;-75
2022/04/04 04:23:34;;;;;;;1.70;1.20;;;;;;;;;;2036863;28;20178;-75
2022/04/04 04:24:33;;;;;;;2.17;1.20;;;;;;;;;;2036908;28;20171;-75
2022/04/04 04:25:33;;;;;;;1.50;1.10;;;;;;;;;;2036857;28;20174;-75
2022/04/04 04:26:32;;;;;;;1.33;1.23;;;;;;;;;;2036783;28;20273;-76
2022/04/04 04:27:31;;;;;;;1.70;1.27;;;;;;;;;;2036878;28;20208;-76
2022/04/04 04:28:30;;;;;;;1.35;1.15;;;;;;;;;;2036949;28;20576;-75
2022/04/04 04:29:29;;;;;;;1.55;1.35;;;;;;;;;;2036880;28;20205;-75
2022/04/04 04:30:29;;;;;;;1.33;1.23;;;;;;;;;;2036348;28;20664;-74
2022/04/04 04:31:28;;;;;;;1.25;1.13;;;;;;;;;;2035994;28;20170;-75
2022/04/04 04:32:27;;;;;;;1.53;1.00;;;;;;;;;;2036925;28;20250;-76
2022/04/04 04:33:26;;;;;;;1.75;1.30;;;;;;;;;;2036876;28;20480;-76
2022/04/04 04:34:25;;;;;;;1.30;1.20;;;;;;;;;;2037030;28;20215;-75
2022/04/04 04:35:25;;;;;;;1.30;1.20;;;;;;;;;;2036849;28;20166;-76
2022/04/04 04:36:24;;;;;;;2.20;1.27;;;;;;;;;;2036715;28;20403;-74
2022/04/04 04:37:23;;;;;;;2.20;1.20;;;;;;;;;;2036893;28;20186;-75
2022/04/04 04:38:22;;;;;;;1.92;1.42;;;;;;;;;;2036828;28;20228;-75
2022/04/04 04:39:21;;;;;;;3.17;1.50;;;;;;;;;;2036137;28;20213;-75
2022/04/04 04:40:20;;;;;;;1.50;1.20;;;;;;;;;;2036330;28;20405;-75
2022/04/04 04:41:19;;;;;;;1.55;1.38;;;;;;;;;;2036669;28;20724;-76
2022/04/04 04:42:18;;;;;;;1.53;1.17;;;;;;;;;;2036097;28;20178;-75
2022/04/04 04:43:17;;;;;;;1.10;1.00;;;;;;;;;;2036205;28;20416;-74
2022/04/04 04:44:16;;;;;;;1.20;1.10;;;;;;;;;;2036774;28;20242;-76
2022/04/04 04:45:15;;;;;;;1.73;1.17;;;;;;;;;;2036930;28;20469;-76
2022/04/04 04:46:14;;;;;;;1.17;1.08;;;;;;;;;;2036677;28;20420;-76
2022/04/04 04:47:15;;;;;;;2.53;1.40;;;;;;;;;;2036486;28;20268;-76
2022/04/04 04:48:14;;;;;;;2.85;1.50;;;;;;;;;;2036621;28;20416;-75
2022/04/04 04:49:13;;;;;;;1.97;1.20;;;;;;;;;;2036730;28;20171;-74
2022/04/04 04:50:13;;;;;;;1.63;1.23;;;;;;;;;;2036719;28;20404;-76
2022/04/04 04:51:12;;;;;;;1.30;1.15;;;;;;;;;;2036621;28;20408;-75
2022/04/04 04:52:12;;;;;;;1.40;1.20;;;;;;;;;;2036869;28;20170;-75
2022/04/04 04:53:11;;;;;;;2.10;1.73;;;;;;;;;;2036619;28;20412;-76
2022/04/04 04:54:10;;;;;;;1.40;1.25;;;;;;;;;;2036623;28;20205;-76
2022/04/04 04:55:10;;;;;;;1.20;1.00;;;;;;;;;;2036867;28;20166;-76
2022/04/04 04:56:09;;;;;;;1.50;1.17;;;;;;;;;;2036805;28;20174;-75
2022/04/04 04:57:08;;;;;;;3.10;1.40;;;;;;;;;;2036929;28;20198;-77
2022/04/04 04:58:08;;;;;;;1.30;1.20;;;;;;;;;;2038290;28;20170;-78
2022/04/04 04:59:07;;;;;;;1.45;1.20;;;;;;;;;;2036918;28;20753;-77
2022/04/04 05:00:07;;;;;;;1.83;1.20;;;;;;;;;;2036863;28;20174;-77
2022/04/04 05:01:06;;;;;;;1.73;1.27;;;;;;;;;;2036758;28;20462;-77
2022/04/04 05:02:07;;;;;;;2.00;1.50;;;;;;;;;;2037546;28;20217;-77
2022/04/04 05:03:26;;;;;;;2.38;1.45;;;;;;;;;;2036924;28;20404;-78
2022/04/04 05:04:25;;;;;;;0.98;0.85;;;;;;;;;;2036783;28;20178;-77
2022/04/04 05:05:24;;;;;;;2.27;1.40;;;;;;;;;;2036218;28;20480;-78
2022/04/04 05:06:23;;;;;;;1.77;1.10;;;;;;;;;;2036225;28;20408;-78
2022/04/04 05:07:23;;;;;;;1.20;1.00;;;;;;;;;;2036062;28;20455;-77
2022/04/04 05:08:22;;;;;;;2.17;1.40;;;;;;;;;;2036154;28;20422;-77
2022/04/04 05:09:22;;;;;;;1.70;1.20;;;;;;;;;;2036284;28;20189;-77
2022/04/04 05:10:21;;;;;;;3.67;1.20;;;;;;;;;;2036913;28;20166;-78
2022/04/04 05:11:20;;;;;;;6.23;0.90;;;;;;;;;;2036830;28;20171;-78
2022/04/04 05:12:19;;;;;;;6.30;1.23;;;;;;;;;;2036582;28;20417;-77
2022/04/04 05:13:18;;;;;;;2.17;1.10;;;;;;;;;;2028216;28;20402;-77
2022/04/04 05:14:17;;;;;;;1.60;1.50;;;;;;;;;;2036004;28;20412;-77
2022/04/04 05:15:16;;;;;;;1.63;1.30;;;;;;;;;;2036868;28;20215;-77
2022/04/04 05:16:15;;;;;;;1.23;1.00;;;;;;;;;;2036388;28;20465;-76
2022/04/04 05:17:15;;;;;;;1.48;0.98;;;;;;;;;;2036719;28;20178;-76
2022/04/04 05:18:14;;;;;;;2.50;1.48;;;;;;;;;;2036693;28;20253;-76
2022/04/04 05:19:16;;;;;;;1.42;1.20;;;;;;;;;;2036718;28;20537;-76
2022/04/04 05:20:15;;;;;;;1.50;1.10;;;;;;;;;;2036019;28;20236;-76
2022/04/04 05:21:14;;;;;;;1.13;1.03;;;;;;;;;;2036169;28;20170;-76
2022/04/04 05:22:14;;;;;;;3.87;1.80;;;;;;;;;;2036356;28;20738;-76
2022/04/04 05:23:16;;;;;;;1.05;0.95;;;;;;;;;;2036467;28;20453;-76
2022/04/04 05:24:15;;;;;;;1.52;1.13;;;;;;;;;;2036699;28;20209;-76
2022/04/04 05:25:14;;;;;;;1.05;0.95;;;;;;;;;;2037153;28;20189;-76
2022/04/04 05:26:13;;;;;;;1.55;1.00;;;;;;;;;;2036970;28;20230;-76
2022/04/04 05:27:12;;;;;;;2.10;1.30;;;;;;;;;;2036906;28;20205;-75
2022/04/04 05:28:11;;;;;;;1.43;1.20;;;;;;;;;;2037007;28;20644;-75
2022/04/04 05:29:10;;;;;;;1.77;1.27;;;;;;;;;;2038375;28;20408;-76
2022/04/04 05:30:09;;;;;;;1.00;0.90;;;;;;;;;;2040319;28;20463;-75
2022/04/04 05:31:09;;;;;;;1.80;1.00;;;;;;;;;;2039877;28;20522;-75
2022/04/04 05:32:08;;;;;;;1.85;1.00;;;;;;;;;;2042807;28;20189;-76
2022/04/04 05:33:09;;;;;;;1.40;1.30;;;;;;;;;;2040657;28;20162;-76
2022/04/04 05:34:08;;;;;;;2.40;1.40;;;;;;;;;;2041779;28;20576;-76
2022/04/04 05:35:07;;;;;;;3.90;1.20;;;;;;;;;;2041090;28;20170;-76
2022/04/04 05:36:07;;;;;;;2.58;1.83;;;;;;;;;;2039505;28;20411;-74
2022/04/04 05:37:07;;;;;;;0.95;0.85;;;;;;;;;;2039023;28;20170;-75
2022/04/04 05:38:06;;;;;;;1.30;1.20;;;;;;;;;;2037574;28;20167;-75
2022/04/04 05:39:06;;;;;;;1.60;0.90;;;;;;;;;;2037314;28;20223;-75
2022/04/04 05:40:05;;;;;;;1.92;1.30;;;;;;;;;;2037233;28;20412;-75
2022/04/04 05:41:04;;;;;;;1.42;1.08;;;;;;;;;;2036677;28;20527;-75
2022/04/04 05:42:04;;;;;;;1.77;1.00;;;;;;;;;;2036873;28;20175;-77
2022/04/04 05:43:03;;;;;;;2.15;1.17;;;;;;;;;;2038605;28;20404;-76
2022/04/04 05:44:03;;;;;;;4.00;1.37;;;;;;;;;;2036457;28;20203;-77
2022/04/04 05:45:03;;;;;;;1.20;1.00;;;;;;;;;;2036729;28;20951;-75
2022/04/04 05:46:02;;;;;;;1.95;1.23;;;;;;;;;;2036434;28;20213;-75
2022/04/04 05:47:01;;;;;;;1.53;1.17;;;;;;;;;;2036338;28;20201;-76
2022/04/04 05:47:59;;;;;;;2.47;1.53;;;;;;;;;;2035835;28;20420;-75
2022/04/04 05:49:00;;;;;;;1.27;1.17;;;;;;;;;;2035879;28;20392;-75
2022/04/04 05:49:59;;;;;;;1.52;1.42;;;;;;;;;;2036479;28;20905;-75
2022/04/04 05:50:59;;;;;;;2.75;1.20;;;;;;;;;;2036576;28;20736;-75
2022/04/04 05:51:58;;;;;;;1.60;1.08;;;;;;;;;;2036621;28;20175;-74
2022/04/04 05:52:58;;;;;;;1.83;1.13;;;;;;;;;;2036642;28;20170;-76
2022/04/04 05:53:57;;;;;;;3.92;1.13;;;;;;;;;;2036415;28;20765;-76
2022/04/04 05:55:01;;;;;;;1.23;1.00;;;;;;;;;;2036376;28;20206;-75
2022/04/04 05:56:00;;;;;;;5.32;1.23;;;;;;;;;;2036664;28;20439;-76
2022/04/04 05:56:59;;;;;;;1.98;1.38;;;;;;;;;;2036439;28;20205;-75
2022/04/04 05:57:58;;;;;;;3.35;1.30;;;;;;;;;;2036364;28;20211;-75
2022/04/04 05:58:57;;;;;;;1.00;0.90;;;;;;;;;;2036441;28;20174;-76
2022/04/04 05:59:57;;;;;;;3.33;1.20;;;;;;;;;;2036365;28;20424;-74